Time;durP1;ratioP1;P1;durP2;ratioP2;P2;SDS_P1;SDS_P2;PMS_P1;PMS_P2;Temp;Humidity;BMP_temperature;BMP_pressure;BME280_temperature;BME280_humidity;BME280_pressure;Samples;Min_cycle;Max_cycle;Signal;HPM_P1;HPM_P2
2020/12/09 00:01:39;;;;;;;31.70;16.87;;;3.90;99.90;;;;;;5016428;28;20054;-61
2020/12/09 00:04:09;;;;;;;33.87;18.13;;;3.90;99.90;;;;;;5015005;28;20363;-62
2020/12/09 00:06:39;;;;;;;33.93;18.20;;;3.90;99.90;;;;;;4992867;28;20054;-62
2020/12/09 00:09:07;;;;;;;33.47;17.73;;;3.90;99.90;;;;;;4993687;28;20050;-62
2020/12/09 00:11:35;;;;;;;35.43;17.87;;;3.90;99.90;;;;;;4991947;28;20046;-62
2020/12/09 00:14:03;;;;;;;35.27;17.17;;;3.90;99.90;;;;;;4992478;28;20061;-62
2020/12/09 00:16:32;;;;;;;31.63;17.10;;;3.90;99.90;;;;;;4991424;28;20517;-62
2020/12/09 00:18:59;;;;;;;33.10;17.27;;;3.90;99.90;;;;;;4992395;28;20057;-62
2020/12/09 00:21:26;;;;;;;33.70;17.27;;;3.90;99.90;;;;;;4991345;28;20085;-62
2020/12/09 00:23:56;;;;;;;33.10;18.33;;;3.90;99.90;;;;;;4992331;28;20077;-62
2020/12/09 00:26:25;;;;;;;35.50;18.10;;;4.00;99.90;;;;;;4992490;28;20057;-62
2020/12/09 00:28:54;;;;;;;37.63;19.13;;;4.00;99.90;;;;;;4991194;28;20838;-62
2020/12/09 00:31:23;;;;;;;32.77;17.17;;;3.90;99.90;;;;;;4991626;28;20061;-62
2020/12/09 00:33:50;;;;;;;34.47;17.67;;;3.90;99.90;;;;;;4987475;28;20069;-62
2020/12/09 00:36:18;;;;;;;32.47;16.67;;;3.90;99.90;;;;;;4972400;28;20508;-62
2020/12/09 00:38:45;;;;;;;38.53;18.83;;;4.00;99.90;;;;;;4971950;28;20520;-62
2020/12/09 00:41:13;;;;;;;42.67;18.87;;;4.00;99.90;;;;;;4971379;28;20058;-62
2020/12/09 00:43:43;;;;;;;35.37;18.57;;;4.00;99.90;;;;;;4972179;28;20074;-62
2020/12/09 00:46:16;;;;;;;35.97;19.40;;;4.00;99.90;;;;;;4974237;28;20130;-62
2020/12/09 00:48:42;;;;;;;37.40;19.27;;;4.00;99.90;;;;;;4991606;28;20053;-62
2020/12/09 00:51:13;;;;;;;35.87;18.33;;;4.00;99.90;;;;;;4990100;28;20051;-62
2020/12/09 00:53:43;;;;;;;38.47;19.63;;;3.90;99.90;;;;;;4991480;28;20050;-62
2020/12/09 00:56:10;;;;;;;39.47;20.20;;;3.90;99.90;;;;;;4991188;28;20093;-62
2020/12/09 00:58:37;;;;;;;37.23;18.80;;;3.90;99.90;;;;;;4990431;28;20495;-64
2020/12/09 01:01:05;;;;;;;35.73;18.87;;;3.90;99.90;;;;;;4990719;28;20061;-65
2020/12/09 01:03:39;;;;;;;42.67;21.07;;;3.80;99.90;;;;;;4988237;28;20049;-65
2020/12/09 01:06:06;;;;;;;41.93;20.57;;;3.80;99.90;;;;;;4990602;28;20050;-62
2020/12/09 01:08:36;;;;;;;43.47;21.20;;;3.80;99.90;;;;;;4989867;28;20052;-62
2020/12/09 01:11:04;;;;;;;42.60;21.43;;;3.70;99.90;;;;;;4990626;28;20178;-66
2020/12/09 01:13:34;;;;;;;41.83;20.37;;;3.70;99.90;;;;;;4990358;28;20416;-66
2020/12/09 01:16:01;;;;;;;42.17;20.87;;;3.70;99.90;;;;;;4990162;28;20074;-66
2020/12/09 01:18:28;;;;;;;42.77;20.83;;;3.80;99.90;;;;;;4990658;28;20085;-64
2020/12/09 01:20:55;;;;;;;43.70;22.00;;;3.80;99.90;;;;;;4989499;28;20458;-64
2020/12/09 01:23:27;;;;;;;40.07;20.80;;;3.80;99.90;;;;;;4990986;28;20058;-62
2020/12/09 01:25:54;;;;;;;38.50;19.80;;;3.80;99.90;;;;;;4990820;28;20053;-62
2020/12/09 01:28:21;;;;;;;43.70;21.80;;;3.80;99.90;;;;;;4991194;28;20801;-62
2020/12/09 01:30:47;;;;;;;44.97;20.90;;;3.80;99.90;;;;;;4990083;28;20054;-62
2020/12/09 01:33:17;;;;;;;43.23;21.90;;;3.80;99.90;;;;;;4977460;28;20424;-62
2020/12/09 01:35:47;;;;;;;40.23;21.80;;;3.80;99.90;;;;;;4971145;28;20047;-62
2020/12/09 01:38:14;;;;;;;44.63;20.97;;;3.70;99.90;;;;;;4971426;28;20077;-61
2020/12/09 01:40:41;;;;;;;46.27;22.17;;;3.70;99.90;;;;;;4990065;28;20057;-62
2020/12/09 01:43:07;;;;;;;43.13;21.47;;;3.70;99.90;;;;;;4989593;28;20050;-62
2020/12/09 01:45:34;;;;;;;42.90;22.17;;;3.70;99.90;;;;;;4990587;28;20054;-62
2020/12/09 01:48:01;;;;;;;44.30;21.80;;;3.60;99.90;;;;;;4990171;28;20523;-62
2020/12/09 01:50:30;;;;;;;44.20;20.27;;;3.70;99.90;;;;;;4989707;28;20062;-62
2020/12/09 01:52:57;;;;;;;39.40;20.43;;;3.70;99.90;;;;;;4990404;28;20388;-62
2020/12/09 01:55:25;;;;;;;42.00;21.37;;;3.70;99.90;;;;;;4989343;28;20050;-62
2020/12/09 01:57:52;;;;;;;42.20;21.93;;;3.70;99.90;;;;;;4990620;28;20074;-62
2020/12/09 02:00:18;;;;;;;41.93;20.90;;;3.70;99.90;;;;;;4988897;28;20054;-62
2020/12/09 02:02:45;;;;;;;45.00;21.63;;;3.80;99.90;;;;;;4990243;28;20557;-62
2020/12/09 02:05:12;;;;;;;44.90;21.43;;;3.80;99.90;;;;;;4989992;28;20077;-61
2020/12/09 02:07:38;;;;;;;45.07;22.10;;;3.80;99.90;;;;;;4989435;28;20062;-62
2020/12/09 02:10:09;;;;;;;46.73;22.67;;;3.70;99.90;;;;;;4990083;28;20057;-62
2020/12/09 02:12:40;;;;;;;48.77;22.57;;;3.70;99.90;;;;;;4989265;28;20050;-62
2020/12/09 02:15:07;;;;;;;46.17;22.37;;;3.70;99.90;;;;;;4989690;28;20423;-62
2020/12/09 02:17:34;;;;;;;44.67;22.50;;;3.70;99.90;;;;;;4984076;28;20050;-62
2020/12/09 02:20:00;;;;;;;44.40;22.47;;;3.70;99.90;;;;;;4989277;28;20065;-62
2020/12/09 02:22:28;;;;;;;55.40;23.17;;;3.60;99.90;;;;;;4989057;28;20047;-64
2020/12/09 02:24:55;;;;;;;49.40;24.40;;;3.60;99.90;;;;;;4988649;28;20073;-62
2020/12/09 02:27:21;;;;;;;46.43;23.17;;;3.70;99.90;;;;;;4989545;28;20046;-62
2020/12/09 02:29:49;;;;;;;47.73;22.67;;;3.70;99.90;;;;;;4989181;28;20057;-63
2020/12/09 02:32:16;;;;;;;52.83;24.70;;;3.80;99.90;;;;;;4992697;28;20463;-62
2020/12/09 02:34:43;;;;;;;51.67;23.50;;;3.80;99.90;;;;;;4991877;28;20050;-62
2020/12/09 02:37:10;;;;;;;46.13;22.87;;;3.70;99.90;;;;;;4993382;28;20050;-62
2020/12/09 02:39:38;;;;;;;45.37;23.30;;;3.80;99.90;;;;;;4993329;28;20046;-62
2020/12/09 02:42:06;;;;;;;48.93;23.03;;;4.00;99.90;;;;;;4989177;28;20424;-62
2020/12/09 02:44:33;;;;;;;41.70;21.53;;;4.00;99.90;;;;;;4993360;28;20066;-66
2020/12/09 02:47:00;;;;;;;47.93;22.50;;;3.90;99.90;;;;;;4991874;28;20046;-64
2020/12/09 02:49:27;;;;;;;45.23;23.53;;;3.80;99.90;;;;;;4993369;28;20051;-64
2020/12/09 02:51:53;;;;;;;52.23;25.03;;;3.80;99.90;;;;;;4991854;28;20414;-65
2020/12/09 02:54:20;;;;;;;47.90;24.33;;;3.80;99.90;;;;;;4992911;28;20054;-62
2020/12/09 02:56:48;;;;;;;50.23;25.30;;;3.80;99.90;;;;;;4992450;28;20665;-62
2020/12/09 02:59:15;;;;;;;45.70;24.67;;;3.80;99.90;;;;;;4992503;28;20039;-62
2020/12/09 03:01:44;;;;;;;48.50;24.17;;;3.90;99.90;;;;;;4993709;28;20049;-65
2020/12/09 03:04:11;;;;;;;46.00;23.20;;;3.90;99.90;;;;;;4996419;28;20049;-67
2020/12/09 03:06:38;;;;;;;46.80;23.10;;;3.90;99.90;;;;;;4997404;28;20045;-64
2020/12/09 03:09:05;;;;;;;54.03;25.40;;;3.80;99.90;;;;;;4993205;28;20502;-64
2020/12/09 03:11:31;;;;;;;48.53;24.50;;;3.80;99.90;;;;;;4992126;28;20049;-66
2020/12/09 03:13:59;;;;;;;55.50;24.60;;;3.80;99.90;;;;;;4992716;28;20450;-64
2020/12/09 03:16:26;;;;;;;51.07;24.37;;;3.80;99.90;;;;;;4989397;28;20410;-65
2020/12/09 03:18:53;;;;;;;50.77;24.40;;;3.80;99.90;;;;;;4991705;28;20079;-65
2020/12/09 03:21:20;;;;;;;48.43;23.90;;;3.80;99.90;;;;;;4987966;28;20061;-64
2020/12/09 03:23:47;;;;;;;47.47;22.37;;;3.80;99.90;;;;;;4991235;28;20530;-64
2020/12/09 03:26:13;;;;;;;44.70;22.00;;;3.80;99.90;;;;;;4991564;28;20054;-65
2020/12/09 03:28:40;;;;;;;46.63;23.60;;;3.80;99.90;;;;;;4992514;28;20050;-65
2020/12/09 03:31:08;;;;;;;44.70;22.17;;;3.90;99.90;;;;;;4991836;28;20145;-64
2020/12/09 03:33:36;;;;;;;41.33;22.33;;;4.00;99.90;;;;;;4991382;28;20133;-64
2020/12/09 03:36:03;;;;;;;44.50;22.13;;;3.90;99.90;;;;;;4992377;28;20057;-64
2020/12/09 03:38:29;;;;;;;45.73;22.57;;;3.90;99.90;;;;;;4990876;28;20046;-64
2020/12/09 03:40:59;;;;;;;45.47;21.87;;;3.80;99.90;;;;;;4991215;28;20079;-65
2020/12/09 03:43:26;;;;;;;43.43;21.47;;;3.80;99.90;;;;;;4988383;28;20042;-66
2020/12/09 03:45:53;;;;;;;46.73;23.17;;;3.80;99.90;;;;;;4991740;28;20054;-65
2020/12/09 03:48:21;;;;;;;49.37;23.27;;;3.80;99.90;;;;;;4992278;28;20058;-64
2020/12/09 03:50:47;;;;;;;44.33;21.90;;;3.70;99.90;;;;;;4990762;28;20070;-65
2020/12/09 03:53:15;;;;;;;50.77;22.37;;;3.70;99.90;;;;;;4992380;28;20066;-65
2020/12/09 03:55:42;;;;;;;49.13;22.83;;;3.70;99.90;;;;;;4990882;28;20054;-64
2020/12/09 03:58:09;;;;;;;46.07;23.63;;;3.70;99.90;;;;;;4992583;28;20057;-64
2020/12/09 04:00:35;;;;;;;50.33;24.03;;;3.70;99.90;;;;;;4991262;28;20065;-65
2020/12/09 04:03:02;;;;;;;48.67;23.90;;;3.70;99.90;;;;;;4991818;28;20057;-64
2020/12/09 04:05:30;;;;;;;49.13;24.30;;;3.70;99.90;;;;;;4991956;28;20054;-65
2020/12/09 04:07:56;;;;;;;50.77;24.70;;;3.70;99.90;;;;;;4991467;28;20057;-66
2020/12/09 04:10:23;;;;;;;54.63;24.73;;;3.80;99.90;;;;;;4991337;28;20054;-64
2020/12/09 04:12:50;;;;;;;50.83;24.83;;;3.80;99.90;;;;;;4990849;28;20054;-65
2020/12/09 04:15:17;;;;;;;49.17;24.57;;;3.80;99.90;;;;;;4992033;28;20536;-66
2020/12/09 04:17:43;;;;;;;48.97;23.00;;;3.80;99.90;;;;;;4991526;28;20050;-65
2020/12/09 04:20:12;;;;;;;52.90;23.40;;;3.80;99.90;;;;;;4990338;28;20069;-62
2020/12/09 04:22:40;;;;;;;52.60;24.53;;;3.80;99.90;;;;;;4991580;28;20050;-62
2020/12/09 04:25:06;;;;;;;52.47;24.37;;;3.80;99.90;;;;;;4990721;28;20046;-62
2020/12/09 04:27:33;;;;;;;54.63;23.93;;;3.70;99.90;;;;;;4991843;28;20518;-62
2020/12/09 04:30:00;;;;;;;54.03;24.37;;;3.80;99.90;;;;;;4990917;28;20058;-62
2020/12/09 04:32:26;;;;;;;52.77;22.47;;;3.70;99.90;;;;;;4991009;28;20046;-62
2020/12/09 04:34:57;;;;;;;49.70;23.67;;;3.70;99.90;;;;;;4991494;28;20061;-65
2020/12/09 04:37:27;;;;;;;49.60;23.63;;;3.70;99.90;;;;;;4990515;28;20058;-66
2020/12/09 04:39:55;;;;;;;49.70;22.83;;;3.70;99.90;;;;;;4991068;28;20054;-65
2020/12/09 04:42:23;;;;;;;52.03;24.10;;;3.70;99.90;;;;;;4990216;28;20093;-65
2020/12/09 04:44:54;;;;;;;50.17;23.83;;;3.70;99.90;;;;;;4972309;28;20073;-65
2020/12/09 04:47:25;;;;;;;51.73;25.80;;;3.70;99.90;;;;;;4971166;28;20117;-64
2020/12/09 04:50:06;;;;;;;54.97;25.13;;;3.70;99.90;;;;;;4972032;28;20106;-66
2020/12/09 04:52:57;;;;;;;56.50;24.37;;;3.70;99.90;;;;;;4970644;28;20412;-64
2020/12/09 04:55:26;;;;;;;47.50;22.90;;;3.70;99.90;;;;;;4971535;28;20047;-64
2020/12/09 04:58:13;;;;;;;52.37;23.97;;;3.70;99.90;;;;;;4971576;28;20058;-64
2020/12/09 05:00:41;;;;;;;47.17;22.73;;;4.00;99.90;;;;;;4970282;28;20054;-65
2020/12/09 05:03:18;;;;;;;52.50;23.60;;;3.90;99.90;;;;;;4971921;28;20057;-65
2020/12/09 05:05:46;;;;;;;45.73;23.93;;;3.90;99.90;;;;;;4970655;28;20113;-65
2020/12/09 05:08:19;;;;;;;47.73;23.13;;;3.80;99.90;;;;;;4971450;28;20046;-64
2020/12/09 05:10:49;;;;;;;46.30;22.73;;;3.80;99.90;;;;;;4970440;28;20065;-67
2020/12/09 05:13:24;;;;;;;44.33;22.60;;;3.70;99.90;;;;;;4977291;28;20054;-65
2020/12/09 05:15:55;;;;;;;51.87;25.00;;;3.70;99.90;;;;;;4990163;28;20058;-64
2020/12/09 05:18:40;;;;;;;47.40;23.00;;;3.70;99.90;;;;;;4990521;28;20518;-65
2020/12/09 05:21:12;;;;;;;54.27;23.27;;;3.70;99.90;;;;;;4990505;28;20050;-64
2020/12/09 05:23:44;;;;;;;51.37;24.07;;;3.60;99.90;;;;;;4989424;28;20054;-64
2020/12/09 05:26:22;;;;;;;51.90;23.97;;;3.60;99.90;;;;;;4990773;28;20101;-65
2020/12/09 05:28:49;;;;;;;53.53;24.93;;;3.60;99.90;;;;;;4989776;28;20047;-66
2020/12/09 05:31:20;;;;;;;51.30;24.97;;;3.70;99.90;;;;;;4990117;28;20057;-65
2020/12/09 05:33:47;;;;;;;51.03;23.90;;;3.70;99.90;;;;;;4989356;28;20050;-64
2020/12/09 05:36:14;;;;;;;48.80;24.00;;;3.60;99.90;;;;;;4990718;28;20054;-64
2020/12/09 05:38:40;;;;;;;51.17;24.30;;;3.50;99.90;;;;;;4990130;28;20061;-66
2020/12/09 05:41:11;;;;;;;50.10;24.57;;;3.50;99.90;;;;;;4989532;28;20056;-65
2020/12/09 05:43:43;;;;;;;49.60;22.93;;;3.50;99.90;;;;;;4990757;28;20121;-62
2020/12/09 05:46:10;;;;;;;50.77;23.63;;;3.50;99.90;;;;;;4989291;28;20435;-62
2020/12/09 05:48:37;;;;;;;48.97;23.80;;;3.40;99.90;;;;;;4990890;28;20050;-62
2020/12/09 05:51:06;;;;;;;48.07;21.97;;;3.40;99.90;;;;;;4989160;28;20057;-62
2020/12/09 05:53:40;;;;;;;49.23;23.47;;;3.40;99.90;;;;;;4991228;28;20105;-62
2020/12/09 05:56:12;;;;;;;46.97;23.03;;;3.40;99.90;;;;;;4990540;28;20202;-66
2020/12/09 05:58:43;;;;;;;48.57;22.43;;;3.40;99.90;;;;;;4972938;28;20050;-64
2020/12/09 06:01:12;;;;;;;52.47;25.40;;;3.30;99.90;;;;;;4971824;28;20053;-64
2020/12/09 06:03:41;;;;;;;50.87;23.77;;;3.30;99.90;;;;;;4977435;28;20062;-64
2020/12/09 06:06:16;;;;;;;53.30;24.90;;;3.40;99.90;;;;;;4992900;28;20057;-65
2020/12/09 06:08:44;;;;;;;49.97;23.10;;;3.50;99.90;;;;;;4993375;28;20093;-64
2020/12/09 06:11:12;;;;;;;52.57;24.17;;;3.50;99.90;;;;;;4994033;28;20069;-64
2020/12/09 06:13:39;;;;;;;49.83;23.50;;;3.60;99.90;;;;;;4993989;28;20061;-65
2020/12/09 06:16:08;;;;;;;54.87;25.17;;;3.60;99.90;;;;;;4994480;28;20055;-65
2020/12/09 06:18:36;;;;;;;59.93;25.07;;;3.50;99.90;;;;;;4994457;28;20050;-64
2020/12/09 06:21:04;;;;;;;54.57;23.97;;;3.50;99.90;;;;;;4994093;28;20054;-65
2020/12/09 06:23:31;;;;;;;55.77;25.33;;;3.50;99.90;;;;;;4995101;28;20082;-65
2020/12/09 06:25:59;;;;;;;51.70;23.83;;;3.50;99.90;;;;;;4994167;28;20503;-65
2020/12/09 06:28:28;;;;;;;51.13;24.50;;;3.60;99.90;;;;;;4994911;28;20426;-64
2020/12/09 06:30:56;;;;;;;45.67;23.60;;;3.60;99.90;;;;;;4994056;28;20046;-65
2020/12/09 06:33:31;;;;;;;46.80;23.13;;;3.70;99.90;;;;;;4993976;28;20050;-64
2020/12/09 06:36:12;;;;;;;53.87;24.20;;;3.70;99.90;;;;;;4994492;28;20053;-65
2020/12/09 06:38:38;;;;;;;43.13;21.90;;;3.60;99.90;;;;;;4993639;28;20051;-65
2020/12/09 06:41:23;;;;;;;48.13;22.27;;;3.60;99.90;;;;;;4996212;28;20050;-64
2020/12/09 06:44:02;;;;;;;42.73;22.17;;;3.70;99.90;;;;;;4998219;28;20054;-65
2020/12/09 06:46:44;;;;;;;46.90;22.53;;;3.70;99.90;;;;;;4997812;28;20061;-65
2020/12/09 06:49:34;;;;;;;43.47;20.40;;;3.80;99.90;;;;;;4994060;28;20069;-65
2020/12/09 06:52:02;;;;;;;40.93;21.10;;;3.80;99.90;;;;;;4994596;28;20054;-65
2020/12/09 06:54:39;;;;;;;46.90;21.80;;;3.70;99.90;;;;;;4994161;28;20502;-65
2020/12/09 06:57:13;;;;;;;45.40;21.03;;;3.70;99.90;;;;;;4994794;28;20057;-66
2020/12/09 06:59:40;;;;;;;41.50;21.93;;;3.60;99.90;;;;;;4994330;28;20458;-65
2020/12/09 07:02:08;;;;;;;47.40;22.37;;;3.70;99.90;;;;;;4994049;28;20550;-65
2020/12/09 07:05:04;;;;;;;43.80;22.53;;;3.60;99.90;;;;;;4994173;28;20059;-65
2020/12/09 07:07:33;;;;;;;43.67;21.33;;;3.50;99.90;;;;;;4993860;28;20061;-65
2020/12/09 07:10:01;;;;;;;48.37;22.70;;;3.50;99.90;;;;;;4994953;28;20050;-64
2020/12/09 07:12:28;;;;;;;39.77;20.33;;;3.60;99.90;;;;;;4994187;28;20396;-65
2020/12/09 07:14:56;;;;;;;42.63;22.07;;;3.60;99.90;;;;;;4994635;28;20148;-65
2020/12/09 07:17:27;;;;;;;42.43;21.17;;;3.60;99.90;;;;;;4993441;28;20058;-64
2020/12/09 07:19:55;;;;;;;43.33;22.00;;;3.60;99.90;;;;;;4987076;28;20058;-64
2020/12/09 07:22:23;;;;;;;41.87;21.23;;;3.60;99.90;;;;;;4974575;28;20054;-66
2020/12/09 07:24:51;;;;;;;41.90;20.27;;;3.60;99.90;;;;;;4974117;28;20054;-65
2020/12/09 07:27:19;;;;;;;44.63;22.87;;;3.60;99.90;;;;;;4981201;28;20140;-65
2020/12/09 07:29:48;;;;;;;49.70;22.60;;;3.60;99.90;;;;;;4993233;28;20054;-64
2020/12/09 07:32:17;;;;;;;46.77;21.70;;;3.70;99.90;;;;;;4993753;28;20065;-64
2020/12/09 07:34:55;;;;;;;46.90;21.73;;;3.70;99.90;;;;;;4993222;28;20050;-65
2020/12/09 07:37:24;;;;;;;45.17;23.50;;;3.70;99.90;;;;;;4992099;28;20487;-65
2020/12/09 07:39:53;;;;;;;55.87;24.70;;;3.80;99.90;;;;;;4974916;28;20097;-67
2020/12/09 07:42:21;;;;;;;46.43;23.43;;;3.80;99.90;;;;;;4982285;28;20133;-65
2020/12/09 07:44:50;;;;;;;43.20;22.03;;;3.80;99.90;;;;;;4980481;28;20463;-64
2020/12/09 07:47:25;;;;;;;50.37;23.80;;;3.80;99.90;;;;;;4975612;28;20050;-65
2020/12/09 07:49:54;;;;;;;49.63;22.47;;;3.80;99.90;;;;;;4976536;28;20055;-65
2020/12/09 07:52:27;;;;;;;44.20;22.63;;;3.80;99.90;;;;;;4974636;28;20110;-64
2020/12/09 07:54:57;;;;;;;50.53;22.30;;;3.90;99.90;;;;;;4974498;28;20055;-66
2020/12/09 07:57:25;;;;;;;46.43;22.43;;;3.90;99.90;;;;;;4983350;28;20280;-64
2020/12/09 07:59:55;;;;;;;49.10;24.47;;;3.90;99.90;;;;;;4980653;28;20062;-65
2020/12/09 08:02:23;;;;;;;46.33;21.47;;;3.90;99.90;;;;;;4975867;28;20050;-67
2020/12/09 08:05:10;;;;;;;48.40;22.53;;;4.00;99.90;;;;;;4987810;28;20057;-66
2020/12/09 08:07:46;;;;;;;47.70;21.55;;;4.00;99.90;;;;;;4990361;28;20053;-65
2020/12/09 08:10:13;;;;;;;46.75;23.08;;;4.00;99.90;;;;;;4995145;28;20043;-65
2020/12/09 08:12:41;;;;;;;47.13;22.70;;;4.10;99.90;;;;;;4994816;28;20061;-68
2020/12/09 08:15:09;;;;;;;47.90;23.53;;;4.10;99.90;;;;;;4995087;28;20054;-65
2020/12/09 08:17:37;;;;;;;47.17;23.20;;;4.10;99.90;;;;;;4987180;28;20109;-67
2020/12/09 08:20:08;;;;;;;54.40;23.93;;;4.10;99.90;;;;;;4991708;28;20050;-66
2020/12/09 08:22:54;;;;;;;49.60;22.93;;;4.10;99.90;;;;;;4994446;28;20047;-65
2020/12/09 08:25:24;;;;;;;37.60;17.38;;;4.20;99.90;;;;;;4989301;28;20097;-67
2020/12/09 08:27:51;;;;;;;47.17;22.60;;;4.20;99.90;;;;;;4992260;28;20047;-63
2020/12/09 08:30:20;;;;;;;43.07;21.63;;;4.20;99.90;;;;;;4990461;28;20397;-63
2020/12/09 08:33:03;;;;;;;42.63;21.27;;;4.20;99.90;;;;;;4981623;28;20055;-62
2020/12/09 08:35:44;;;;;;;48.37;21.60;;;4.30;99.90;;;;;;4986552;28;20051;-61
2020/12/09 08:38:13;;;;;;;39.97;21.20;;;4.30;99.90;;;;;;4973717;28;20621;-64
2020/12/09 08:40:39;;;;;;;43.23;21.37;;;4.30;99.90;;;;;;4981796;28;20138;-65
2020/12/09 08:43:06;;;;;;;36.27;19.27;;;4.40;99.90;;;;;;4981864;28;20657;-65
2020/12/09 08:45:33;;;;;;;43.00;21.23;;;4.40;99.90;;;;;;4975949;28;20054;-64
2020/12/09 08:47:59;;;;;;;42.17;22.13;;;4.50;99.90;;;;;;4987033;28;20050;-65
2020/12/09 08:50:26;;;;;;;41.23;21.40;;;4.50;99.90;;;;;;4976022;28;20126;-65
2020/12/09 08:52:52;;;;;;;37.00;19.43;;;4.50;99.90;;;;;;4980671;28;20066;-66
2020/12/09 08:55:20;;;;;;;37.37;19.10;;;4.50;99.90;;;;;;4983144;28;20061;-64
2020/12/09 08:57:47;;;;;;;33.43;18.20;;;4.40;99.90;;;;;;4974485;28;20051;-63
2020/12/09 09:00:13;;;;;;;39.80;19.03;;;4.40;99.90;;;;;;4986193;28;20069;-63
2020/12/09 09:02:42;;;;;;;35.30;18.17;;;4.40;99.90;;;;;;4982257;28;20043;-67
2020/12/09 09:05:09;;;;;;;36.17;19.13;;;4.40;99.90;;;;;;4982869;28;20059;-62
2020/12/09 09:07:36;;;;;;;37.80;18.40;;;4.40;99.90;;;;;;4973971;28;20130;-65
2020/12/09 09:10:03;;;;;;;33.87;18.60;;;4.20;99.90;;;;;;4987813;28;20101;-65
2020/12/09 09:12:31;;;;;;;33.83;17.73;;;4.00;99.90;;;;;;4978687;28;20050;-65
2020/12/09 09:14:57;;;;;;;36.80;19.03;;;4.10;99.90;;;;;;4982020;28;20070;-64
2020/12/09 09:17:24;;;;;;;36.00;18.17;;;4.20;99.90;;;;;;4984220;28;20054;-64
2020/12/09 09:19:50;;;;;;;35.37;18.97;;;4.30;99.90;;;;;;4988572;28;20050;-64
2020/12/09 09:22:17;;;;;;;37.07;19.30;;;4.40;99.90;;;;;;4981278;28;20050;-64
2020/12/09 09:24:44;;;;;;;34.23;18.50;;;4.50;99.90;;;;;;4978202;28;20097;-65
2020/12/09 09:27:11;;;;;;;33.13;18.10;;;4.40;99.90;;;;;;4988211;28;20050;-65
2020/12/09 09:29:39;;;;;;;39.30;20.80;;;4.40;99.90;;;;;;4988337;28;20503;-64
2020/12/09 09:32:06;;;;;;;42.13;21.43;;;4.40;99.90;;;;;;4972957;28;20065;-65
2020/12/09 09:34:33;;;;;;;39.47;21.03;;;4.40;99.90;;;;;;4988675;28;20054;-63
2020/12/09 09:37:00;;;;;;;40.93;19.87;;;4.30;99.90;;;;;;4978771;28;20051;-64
2020/12/09 09:39:27;;;;;;;39.57;20.60;;;4.40;99.90;;;;;;4970181;28;20055;-65
2020/12/09 09:41:57;;;;;;;38.10;19.43;;;4.40;99.90;;;;;;4985193;28;20047;-64
2020/12/09 09:44:24;;;;;;;34.40;18.20;;;4.30;99.90;;;;;;4976565;28;20414;-66
2020/12/09 09:46:52;;;;;;;35.83;18.83;;;4.30;99.90;;;;;;4985992;28;20077;-66
2020/12/09 09:49:18;;;;;;;35.97;19.00;;;4.30;99.90;;;;;;4976410;28;20047;-65
2020/12/09 09:51:45;;;;;;;39.83;18.97;;;4.40;99.90;;;;;;4986097;28;20535;-66
2020/12/09 09:54:11;;;;;;;42.77;19.47;;;4.50;99.90;;;;;;4973401;28;20054;-65
2020/12/09 09:56:41;;;;;;;38.47;17.60;;;4.50;99.90;;;;;;4989369;28;20049;-65
2020/12/09 09:59:08;;;;;;;34.00;19.07;;;4.40;99.90;;;;;;4976913;28;20057;-65
2020/12/09 10:01:35;;;;;;;33.13;17.67;;;4.40;99.90;;;;;;4984523;28;20400;-67
2020/12/09 10:04:06;;;;;;;30.73;17.07;;;4.30;99.90;;;;;;4984550;28;20062;-67
2020/12/09 10:06:33;;;;;;;38.10;19.10;;;4.40;99.90;;;;;;4986306;28;20583;-66
2020/12/09 10:08:59;;;;;;;35.50;19.30;;;4.30;99.90;;;;;;4984140;28;20503;-66
2020/12/09 10:11:26;;;;;;;34.53;18.40;;;4.50;99.90;;;;;;4986264;28;20117;-66
2020/12/09 10:13:53;;;;;;;37.03;19.77;;;4.50;99.90;;;;;;4986486;28;20557;-65
2020/12/09 10:16:25;;;;;;;35.80;19.03;;;4.50;99.90;;;;;;4982463;28;20051;-66
2020/12/09 10:18:52;;;;;;;35.80;17.70;;;4.50;99.90;;;;;;4986644;28;20067;-64
2020/12/09 10:21:27;;;;;;;39.27;18.70;;;4.60;99.90;;;;;;4986189;28;20050;-65
2020/12/09 10:23:54;;;;;;;36.83;17.97;;;4.70;99.90;;;;;;4987106;28;20055;-66
2020/12/09 10:26:27;;;;;;;39.93;18.97;;;4.50;99.90;;;;;;4989322;28;20049;-65
2020/12/09 10:28:54;;;;;;;37.33;20.67;;;4.50;99.90;;;;;;4984506;28;20047;-66
2020/12/09 10:31:21;;;;;;;39.13;19.27;;;4.50;99.90;;;;;;4988321;28;20755;-65
2020/12/09 10:33:48;;;;;;;39.93;18.87;;;4.50;99.90;;;;;;4990240;28;20057;-64
2020/12/09 10:36:20;;;;;;;33.93;18.10;;;4.40;99.90;;;;;;4990880;28;20054;-65
2020/12/09 10:38:48;;;;;;;39.37;19.70;;;4.50;99.90;;;;;;4994237;28;20097;-73
2020/12/09 10:41:15;;;;;;;34.77;18.83;;;4.60;99.90;;;;;;4988689;28;20057;-69
2020/12/09 10:43:42;;;;;;;42.73;19.33;;;4.70;99.90;;;;;;4989224;28;20050;-69
2020/12/09 10:46:09;;;;;;;33.30;18.63;;;4.50;99.90;;;;;;4988428;28;20058;-69
2020/12/09 10:48:36;;;;;;;35.23;18.67;;;4.40;99.90;;;;;;4989261;28;20042;-68
2020/12/09 10:51:05;;;;;;;37.43;18.00;;;4.20;99.90;;;;;;4988010;28;20047;-69
2020/12/09 10:53:31;;;;;;;37.97;19.80;;;4.30;99.90;;;;;;4993018;28;20049;-73
2020/12/09 10:56:01;;;;;;;40.37;18.93;;;4.30;99.90;;;;;;4991023;28;20047;-67
2020/12/09 10:58:28;;;;;;;34.57;18.53;;;4.30;99.90;;;;;;4992256;28;20128;-68
2020/12/09 11:00:55;;;;;;;39.20;20.13;;;4.40;99.90;;;;;;4989991;28;20427;-66
2020/12/09 11:03:25;;;;;;;36.53;18.63;;;4.50;99.90;;;;;;4992280;28;20042;-67
2020/12/09 11:05:52;;;;;;;37.97;18.80;;;4.40;99.90;;;;;;4993807;28;20062;-67
2020/12/09 11:08:19;;;;;;;37.40;18.07;;;4.30;99.90;;;;;;4988897;28;20055;-67
2020/12/09 11:10:46;;;;;;;36.87;18.63;;;4.40;99.90;;;;;;4992348;28;20507;-67
2020/12/09 11:13:14;;;;;;;34.37;18.30;;;4.50;99.90;;;;;;4991474;28;20066;-67
2020/12/09 11:15:41;;;;;;;34.03;17.33;;;4.40;99.90;;;;;;4992003;28;20058;-67
2020/12/09 11:18:08;;;;;;;31.27;16.90;;;4.30;99.90;;;;;;4991532;28;20488;-67
2020/12/09 11:20:37;;;;;;;32.70;17.53;;;4.50;99.90;;;;;;4990018;28;20503;-66
2020/12/09 11:23:05;;;;;;;33.40;16.93;;;4.50;99.90;;;;;;4990895;28;20622;-69
2020/12/09 11:25:32;;;;;;;36.83;19.37;;;4.40;99.90;;;;;;4991439;28;20050;-66
2020/12/09 11:27:59;;;;;;;35.37;19.07;;;4.50;99.90;;;;;;4991157;28;20050;-67
2020/12/09 11:30:26;;;;;;;33.80;18.87;;;4.30;99.90;;;;;;4991744;28;20069;-67
2020/12/09 11:32:56;;;;;;;40.10;20.17;;;4.40;99.90;;;;;;4991066;28;20054;-67
2020/12/09 11:35:23;;;;;;;38.13;19.77;;;4.50;99.90;;;;;;4991263;28;20042;-67
2020/12/09 11:37:50;;;;;;;34.43;18.27;;;4.50;99.90;;;;;;4989044;28;20054;-67
2020/12/09 11:40:19;;;;;;;38.40;18.53;;;4.60;99.90;;;;;;4990514;28;20050;-69
2020/12/09 11:42:45;;;;;;;36.03;19.73;;;4.50;99.90;;;;;;4988876;28;20050;-67
2020/12/09 11:45:12;;;;;;;37.97;18.90;;;4.40;99.90;;;;;;4989026;28;20061;-67
2020/12/09 11:47:39;;;;;;;36.83;19.27;;;4.50;99.90;;;;;;4992406;28;20050;-66
2020/12/09 11:50:06;;;;;;;38.43;19.47;;;4.40;99.90;;;;;;4991155;28;20057;-69
2020/12/09 11:52:33;;;;;;;37.97;17.90;;;4.50;99.90;;;;;;4992420;28;20047;-66
2020/12/09 11:54:59;;;;;;;37.53;18.10;;;4.50;99.90;;;;;;4992625;28;20073;-67
2020/12/09 11:57:26;;;;;;;37.30;19.90;;;4.50;99.90;;;;;;4992308;28;20524;-67
2020/12/09 11:59:53;;;;;;;37.23;19.10;;;4.50;99.90;;;;;;4989687;28;20054;-67
2020/12/09 12:02:19;;;;;;;36.73;19.53;;;4.50;99.90;;;;;;4990048;28;20050;-68
2020/12/09 12:04:49;;;;;;;41.60;20.23;;;4.70;99.90;;;;;;4991146;28;20073;-68
2020/12/09 12:07:16;;;;;;;39.13;19.53;;;4.70;99.90;;;;;;4985934;28;20057;-67
2020/12/09 12:09:43;;;;;;;35.43;18.70;;;4.70;99.90;;;;;;4989527;28;20054;-67
2020/12/09 12:12:10;;;;;;;37.60;18.20;;;4.70;99.90;;;;;;4987670;28;20132;-67
2020/12/09 12:14:37;;;;;;;36.27;17.47;;;4.70;99.90;;;;;;4991547;28;20051;-67
2020/12/09 12:17:08;;;;;;;34.83;18.17;;;4.70;99.90;;;;;;4990593;28;20043;-69
2020/12/09 12:19:35;;;;;;;35.13;18.07;;;4.70;99.90;;;;;;4990652;28;20054;-67
2020/12/09 12:22:02;;;;;;;36.20;17.83;;;4.70;99.90;;;;;;4991235;28;20046;-68
2020/12/09 12:24:29;;;;;;;30.77;17.27;;;4.60;99.90;;;;;;4990533;28;20046;-67
2020/12/09 12:26:56;;;;;;;34.07;16.90;;;4.40;99.90;;;;;;4991724;28;20050;-67
2020/12/09 12:29:23;;;;;;;35.77;17.63;;;4.40;99.90;;;;;;4991887;28;20054;-67
2020/12/09 12:31:49;;;;;;;32.97;16.47;;;4.50;99.90;;;;;;4991095;28;20503;-66
2020/12/09 12:34:17;;;;;;;33.87;17.60;;;4.50;99.90;;;;;;4991965;28;20054;-67
2020/12/09 12:36:44;;;;;;;35.20;17.60;;;4.60;99.90;;;;;;4991796;28;20046;-69
2020/12/09 12:39:12;;;;;;;36.50;17.50;;;4.60;99.90;;;;;;4992543;28;20507;-67
2020/12/09 12:41:43;;;;;;;37.33;17.43;;;4.50;99.90;;;;;;4990750;28;20502;-64
2020/12/09 12:44:19;;;;;;;37.27;17.77;;;4.40;99.90;;;;;;4991504;28;20088;-64